Weather observations for the past three days for
Greene County Regional Airport
Imperial (Metric)
Date Time (edt) Wind (mph) Vis. (mi.) Weather Sky Cond. Temperature (ºF) Relative Humidity Wind Chill (°F) Heat Index (°F) Pressure Precipitation (in)
Air Dwpt 6 hour altimeter (in) sea level (mb) 1 hr 3 hr 6 hr
Max. Min.
05 08:55 Calm 10.00 A Few Clouds FEW050 78.8 77 94% 83 29.99 0.0
05 08:35 Calm 10.00 A Few Clouds FEW050 77 77 100% 78 29.99 0.0
05 08:15 Calm 7.00 Partly Cloudy SCT002 SCT050 75.2 75.2 100% 73 29.99 0.0
05 07:55 Calm 4.00 Fog/Mist OVC002 73.4 73.4 100% 29.98 0.0
05 07:35 Calm 5.00 Fog/Mist OVC002 73.4 73.4 100% 29.98 0.0
05 07:15 Calm 1.75 Fog/Mist OVC002 73.4 73.4 100% 29.97 0.0
05 06:55 Calm 2.50 Fog/Mist OVC002 73.4 73.4 100% 29.97 0.0
05 06:35 Calm 0.50 Fog OVC002 73.4 73.4 100% 29.97 0.0
05 06:15 Calm 6.00 Fog/Mist OVC002 71.6 71.6 100% 29.96 0.0
05 05:55 Calm 4.00 Fog/Mist OVC002 73.4 73.4 100% 29.96 0.0
05 05:35 Calm 6.00 Fog/Mist BKN002 73.4 73.4 100% 29.96 0.0
05 05:15 Calm 5.00 Fog/Mist FEW002 73.4 73.4 100% 29.95 0.0
05 04:55 Calm 5.00 Fog/Mist CLR 73.4 73.4 100% 29.95 0.0
05 04:35 Calm 9.00 Fair CLR 73.4 73.4 100% 29.96 0.0
05 04:15 Calm 7.00 Fair CLR 73.4 73.4 100% 29.96 0.0
05 03:55 Calm 10.00 Fair CLR 73.4 73.4 100% 29.96 0.0
05 03:35 Calm 10.00 Fair CLR 73.4 73.4 100% 29.96 0.0
05 03:15 Calm 10.00 Fair CLR 73.4 73.4 100% 29.96 0.0
05 02:55 Calm 10.00 Fair CLR 73.4 73.4 100% 29.96 0.0
05 02:35 Calm 10.00 Fair CLR 75.2 75.2 100% 73 29.97 0.0
05 02:15 Calm 10.00 Fair CLR 75.2 75.2 100% 73 29.96 0.0
05 01:55 S 3 10.00 Fair CLR 75.2 75.2 100% 73 29.97 0.0
05 01:35 Calm 10.00 Fair CLR 75.2 75.2 100% 73 29.98 0.0
05 01:15 Calm 10.00 Fair CLR 77 75.2 94% 78 29.98 0.0
05 00:55 Calm 10.00 Fair CLR 77 75.2 94% 78 29.98 0.0
05 00:35 Calm 10.00 Fair CLR 77 75.2 94% 78 29.99 0.0
05 00:15 Calm 10.00 Fair CLR 77 75.2 94% 78 29.99 0.0
04 23:55 Calm 10.00 Fair CLR 78.8 75.2 89% 82 29.98 0.0
04 23:35 S 3 10.00 Fair CLR 78.8 75.2 89% 82 29.98 0.0
04 23:15 S 5 10.00 Fair CLR 78.8 75.2 89% 82 29.99 0.0
04 22:55 S 3 10.00 Fair CLR 78.8 75.2 89% 82 30 0.0
04 22:35 S 5 10.00 Fair CLR 78.8 75.2 89% 82 30.01 0.0
04 22:15 Vrbl 6 10.00 Fair CLR 78.8 75.2 89% 82 30.01 0.0
04 21:55 Calm 10.00 Fair CLR 80.6 75.2 84% 86 30 0.0
04 21:35 Calm 10.00 Fair CLR 80.6 77 89% 87 30 0.0
04 21:15 Calm 10.00 Fair CLR 80.6 77 89% 87 29.99 0.0
04 20:55 Calm 10.00 Fair CLR 82.4 77 84% 91 29.99 0.0
04 20:35 Calm 10.00 Fair CLR 82.4 77 84% 91 29.98 0.0
04 20:15 Calm 10.00 Fair CLR 84.2 77 79% 94 29.98 0.0
04 19:55 Calm 10.00 Fair CLR 87.8 75.2 66% 98 29.97 0.0
04 19:35 Calm 10.00 Fair CLR 87.8 77 70% 100 29.96 0.0
04 19:15 Calm 10.00 Fair CLR 91.4 75.2 59% 103 29.95 0.0
04 18:35 S 5 10.00 Fair CLR 93.2 73.4 53% 103 29.96 0.0
04 18:15 Vrbl 5 10.00 Fair CLR 95 73.4 50% 105 29.96 0.0
04 17:55 S 5 10.00 Fair CLR 96.8 69.8 42% 103 29.96 0.0
04 17:35 Vrbl 6 10.00 Fair CLR 96.8 69.8 42% 103 29.96 0.0
04 17:15 Vrbl 5 10.00 Fair CLR 96.8 69.8 42% 103 29.96 0.0
04 16:55 Vrbl 7 10.00 Fair CLR 95 69.8 44% 101 29.96 0.0
04 16:35 SE 8 9.00 Fair CLR 96.8 71.6 44% 105 29.97 0.0
04 16:15 Calm 10.00 A Few Clouds FEW060 95 71.6 47% 103 29.98 0.0
04 15:55 Vrbl 7 10.00 Fair CLR 95 71.6 47% 103 29.99 0.0
04 15:35 E 8 9.00 Fair CLR 95 73.4 50% 105 30 0.0
04 15:15 NE 8 10.00 Fair CLR 95 71.6 47% 103 30.01 0.0
04 14:55 Vrbl 6 10.00 A Few Clouds FEW047 FEW065 93.2 73.4 53% 103 30.01 0.0
04 14:35 Vrbl 3 10.00 Partly Cloudy SCT046 93.2 75.2 56% 105 30.02 0.0
04 14:15 NE 6 10.00 Mostly Cloudy BKN042 BKN048 91.4 73.4 56% 100 30.03 0.0
04 13:55 Calm 10.00 Mostly Cloudy SCT042 BKN048 91.4 75.2 59% 103 30.03 0.0
04 13:35 SE 6 10.00 Partly Cloudy SCT044 89.6 75.2 63% 100 30.04 0.0
04 13:15 Vrbl 7 10.00 Fair CLR 91.4 75.2 59% 103 30.05 0.0
04 12:55 Vrbl 7 10.00 Fair CLR 91.4 75.2 59% 103 30.05 0.0
04 12:35 Vrbl 6 10.00 A Few Clouds FEW033 89.6 75.2 63% 100 30.06 0.0
04 12:15 Vrbl 5 10.00 Partly Cloudy FEW028 SCT034 89.6 77 67% 103 30.07 0.0
04 11:55 Vrbl 5 10.00 Mostly Cloudy BKN028 BKN033 86 77 75% 97 30.08 0.0
04 11:35 Calm 10.00 Partly Cloudy FEW023 SCT030 86 75.2 70% 95 30.08 0.0
04 11:15 Calm 10.00 Mostly Cloudy BKN022 86 77 75% 97 30.08 0.0
04 10:55 Calm 10.00 Mostly Cloudy BKN020 84.2 77 79% 94 30.08 0.0
04 10:35 Calm 10.00 Mostly Cloudy BKN017 84.2 78.8 84% 96 30.07 0.0
04 10:15 Calm 10.00 Partly Cloudy SCT014 82.4 77 84% 91 30.07 0.0
04 09:55 Calm 10.00 Partly Cloudy SCT010 80.6 77 89% 87 30.07 0.0
04 09:35 Calm 10.00 Partly Cloudy SCT009 80.6 77 89% 87 30.07 0.0
04 09:15 Calm 10.00 Overcast OVC009 78.8 77 94% 83 30.07 0.0
04 08:55 Calm 10.00 Overcast OVC008 78.8 77 94% 83 30.08 0.0
04 08:35 Calm 10.00 Mostly Cloudy BKN008 77 77 100% 78 30.07 0.0
04 08:15 Calm 8.00 Partly Cloudy SCT008 77 75.2 94% 78 30.07 0.0
04 07:55 Calm 10.00 Mostly Cloudy BKN008 73.4 73.4 100% 30.06 0.0
04 07:35 Calm 10.00 Partly Cloudy SCT008 73.4 73.4 100% 30.06 0.0
04 07:15 Calm 10.00 Overcast BKN008 OVC047 73.4 73.4 100% 30.06 0.0
04 06:55 Calm 10.00 Partly Cloudy FEW008 SCT048 73.4 73.4 100% 30.06 0.0
04 06:35 Calm 10.00 A Few Clouds FEW049 73.4 73.4 100% 30.05 0.0
04 06:15 Calm 10.00 A Few Clouds FEW011 FEW047 73.4 73.4 100% 30.05 0.0
04 05:55 Calm 10.00 Fair CLR 73.4 73.4 100% 30.04 0.0
04 05:35 Calm 10.00 Fair CLR 73.4 73.4 100% 30.04 0.0
04 05:15 Calm 10.00 Fair CLR 73.4 73.4 100% 30.04 0.0
04 04:55 Calm 10.00 Fair CLR 73.4 73.4 100% 30.03 0.0
04 04:35 Calm 10.00 Fair CLR 75.2 73.4 94% 74 30.03 0.0
04 04:15 Calm 10.00 Fair CLR 73.4 73.4 100% 30.03 0.0
04 03:55 Calm 10.00 Fair CLR 75.2 73.4 94% 74 30.03 0.0
04 03:35 Calm 10.00 Fair CLR 75.2 73.4 94% 74 30.03 0.0
04 03:15 Calm 10.00 Fair CLR 75.2 73.4 94% 74 30.02 0.0
04 02:55 Calm 10.00 Fair CLR 75.2 73.4 94% 74 30.02 0.0
04 02:35 Calm 10.00 Fair CLR 77 73.4 89% 78 30.02 0.0
04 02:15 Calm 10.00 Fair CLR 77 73.4 89% 78 30.03 0.0
04 01:55 Calm 10.00 Fair CLR 77 73.4 89% 78 30.04 0.0
04 01:35 Calm 10.00 Fair CLR 78.8 73.4 84% 82 30.04 0.0
04 01:15 Calm 10.00 Fair CLR 78.8 73.4 84% 82 30.05 0.0
04 00:55 Calm 10.00 Fair CLR 78.8 73.4 84% 82 30.05 0.0
04 00:35 Calm 10.00 Fair CLR 78.8 73.4 84% 82 30.05 0.0
04 00:15 Calm 10.00 Fair CLR 78.8 73.4 84% 82 30.05 0.0
03 23:55 Calm 10.00 Fair CLR 80.6 73.4 79% 85 30.05 0.0
03 23:35 Calm 10.00 Fair CLR 80.6 73.4 79% 85 30.05 0.0
03 23:15 Calm 10.00 Fair CLR 80.6 75.2 84% 86 30.05 0.0
03 22:55 Calm 10.00 Fair CLR 80.6 75.2 84% 86 30.05 0.0
03 22:35 Calm 10.00 Fair CLR 80.6 75.2 84% 86 30.05 0.0
03 22:15 Calm 10.00 Fair CLR 82.4 75.2 79% 89 30.05 0.0
03 21:55 Calm 9.00 Fair CLR 82.4 75.2 79% 89 30.05 0.0
03 21:35 Calm 10.00 Fair CLR 82.4 75.2 79% 89 30.04 0.0
03 21:15 Calm 10.00 Fair CLR 80.6 77 89% 87 30.03 0.0
03 20:55 Calm 10.00 Fair CLR 84.2 77 79% 94 30.02 0.0
03 20:35 Calm 10.00 Fair CLR 84.2 77 79% 94 30.01 0.0
03 20:15 Calm 10.00 Fair CLR 84.2 77 79% 94 30.01 0.0
03 19:55 Calm 10.00 Fair CLR 86 75.2 70% 95 30 0.0
03 19:35 Calm 10.00 Fair CLR 87.8 75.2 66% 98 29.99 0.0
03 19:15 Calm 10.00 Fair CLR 91.4 71.6 52% 99 29.99 0.0
03 18:55 SE 7 10.00 Fair CLR 93.2 71.6 50% 101 29.98 0.0
03 18:35 E 5 10.00 Fair CLR 95 71.6 47% 103 29.99 0.0
03 17:55 SE 6 G 13 10.00 A Few Clouds FEW065 96.8 71.6 44% 105 29.98 0.0
03 17:35 SE 6 7.00 Fair CLR 96.8 73.4 47% 107 29.98 0.0
03 17:15 S 6 10.00 Fair CLR 95 75.2 53% 107 29.99 0.0
03 16:55 Calm 10.00 A Few Clouds FEW065 95 77 56% 110 29.99 0.0
03 16:35 S 7 10.00 Mostly Cloudy SCT060 BKN070 95 75.2 53% 107 30 0.0
03 16:15 Calm 10.00 Mostly Cloudy SCT060 BKN075 BKN085 95 71.6 47% 103 30.01 0.0
03 15:55 Vrbl 6 10.00 Partly Cloudy FEW065 FEW070 SCT085 96.8 73.4 47% 107 30.01 0.0
03 15:35 SE 5 10.00 A Few Clouds FEW070 FEW110 96.8 75.2 50% 110 30.02 0.0
03 15:15 Vrbl 5 10.00 A Few Clouds FEW055 FEW110 95 75.2 53% 107 30.02 0.0
03 14:55 S 6 10.00 Fair CLR 95 75.2 53% 107 30.03 0.0
03 14:35 Vrbl 7 10.00 A Few Clouds FEW060 95 75.2 53% 107 30.04 0.0
03 14:15 Vrbl 6 9.00 A Few Clouds FEW060 95 77 56% 110 30.05 0.0
03 13:55 Vrbl 3 G 12 6.00 A Few Clouds with Haze FEW060 95 77 56% 110 30.05 0.0
03 13:35 Vrbl 3 8.00 Fair CLR 95 77 56% 110 30.05 0.0
03 13:15 Calm 9.00 Partly Cloudy SCT045 93.2 75.2 56% 105 30.06 0.0
03 12:55 Calm 9.00 Mostly Cloudy BKN045 93.2 77 59% 107 30.07 0.0
03 12:35 Vrbl 5 10.00 Fair CLR 91.4 75.2 59% 103 30.08 0.0
03 12:15 S 3 8.00 Fair CLR 91.4 77 63% 105 30.08 0.0
03 11:55 Vrbl 3 10.00 Fair CLR 91.4 77 63% 105 30.09 0.0
03 11:35 Calm 10.00 Fair CLR 89.6 77 67% 103 30.09 0.0
03 11:15 W 3 10.00 Fair CLR 89.6 75.2 63% 100 30.09 0.0
03 10:55 Calm 10.00 Fair CLR 87.8 75.2 66% 98 30.09 0.0
03 10:35 Calm 10.00 Fair CLR 87.8 77 70% 100 30.09 0.0
03 10:15 Calm 9.00 Fair CLR 86 77 75% 97 30.09 0.0
03 09:55 Calm 10.00 Fair CLR 84.2 75.2 74% 92 30.09 0.0
03 09:35 W 5 10.00 Fair CLR 84.2 75.2 74% 92 30.09 0.0
03 09:15 Calm 6.00 Fair with Haze CLR 82.4 75.2 79% 89 30.1 0.0
03 08:55 Calm 10.00 Fair CLR 82.4 75.2 79% 89 30.1 0.0
03 08:35 Calm 10.00 Fair CLR 80.6 75.2 84% 86 30.1 0.0
03 08:15 Calm 10.00 Fair CLR 77 75.2 94% 78 30.09 0.0
03 07:55 Calm 8.00 A Few Clouds FEW055 75.2 73.4 94% 74 30.09 0.0
03 07:35 Calm 9.00 Partly Cloudy SCT055 73.4 73.4 100% 30.09 0.0
03 07:15 Calm 8.00 Partly Cloudy SCT055 73.4 73.4 100% 30.08 0.0
03 06:55 Calm 10.00 Mostly Cloudy BKN055 75.2 73.4 94% 74 30.08 0.0
03 06:35 Calm 10.00 Fair CLR 75.2 73.4 94% 74 30.07 0.0
03 06:15 Calm 10.00 Fair CLR 75.2 73.4 94% 74 30.07 0.0
03 05:55 Calm 10.00 Fair CLR 75.2 73.4 94% 74 30.06 0.0
03 05:35 Calm 10.00 Fair CLR 75.2 73.4 94% 74 30.06 0.0
03 05:15 Calm 10.00 Fair CLR 75.2 75.2 100% 73 30.06 0.0
03 04:55 Calm 10.00 Fair CLR 75.2 73.4 94% 74 30.06 0.0
03 04:35 Calm 10.00 Fair CLR 77 73.4 89% 78 30.06 0.0
03 04:15 Calm 10.00 Fair CLR 77 73.4 89% 78 30.05 0.0
03 03:55 Calm 10.00 Fair CLR 77 73.4 89% 78 30.05 0.0
03 03:35 Calm 10.00 Fair CLR 77 75.2 94% 78 30.06 0.0
03 03:15 S 3 10.00 Fair CLR 77 75.2 94% 78 30.06 0.0
03 02:55 Calm 10.00 Fair CLR 77 75.2 94% 78 30.05 0.0
03 02:35 S 3 10.00 Fair CLR 77 75.2 94% 78 30.06 0.0
03 02:15 Calm 10.00 Fair CLR 77 75.2 94% 78 30.06 0.0
03 01:55 Calm 10.00 Fair CLR 78.8 75.2 89% 82 30.06 0.0
03 01:35 Calm 10.00 Fair CLR 77 75.2 94% 78 30.06 0.0
03 01:15 Calm 10.00 Fair CLR 77 77 100% 78 30.06 0.0
03 00:55 Calm 10.00 Fair CLR 78.8 77 94% 83 30.06 0.0
03 00:35 Calm 10.00 Fair CLR 78.8 77 94% 83 30.06 0.0
03 00:15 Calm 10.00 Fair CLR 80.6 77 89% 87 30.06 0.0
02 23:55 Calm 10.00 Fair CLR 80.6 77 89% 87 30.06 0.0
02 23:35 Calm 10.00 Fair CLR 78.8 77 94% 83 30.06 0.0
02 23:15 Calm 10.00 Fair CLR 78.8 77 94% 83 30.07 0.0
02 22:55 Calm 10.00 Fair CLR 80.6 77 89% 87 30.07 0.0
02 22:35 Calm 10.00 Fair CLR 80.6 77 89% 87 30.07 0.0
02 22:15 Calm 10.00 Fair CLR 80.6 78.8 94% 88 30.07 0.0
02 21:55 Calm 10.00 Fair CLR 80.6 78.8 94% 88 30.07 0.0
02 21:35 Calm 10.00 Fair CLR 82.4 78.8 89% 92 30.06 0.0
02 21:15 Calm 10.00 Fair CLR 82.4 80.6 94% 94 30.05 0.0
02 20:55 Calm 10.00 Fair CLR 82.4 80.6 94% 94 30.05 0.0
02 20:35 Calm 10.00 Fair CLR 82.4 80.6 94% 94 30.04 0.0
02 20:15 Calm 10.00 Fair CLR 84.2 80.6 89% 98 30.03 0.0
02 19:55 Calm 10.00 Fair CLR 86 80.6 84% 102 30.03 0.0
02 19:35 Calm 10.00 Fair CLR 86 80.6 84% 102 30.03 0.0
02 19:15 Calm 10.00 Fair CLR 87.8 80.6 79% 105 30.03 0.0
02 18:55 Calm 10.00 Fair CLR 93.2 78.8 63% 110 30.03 0.0
02 18:35 Calm 10.00 Fair CLR 91.4 77 63% 105 30.03 0.0
02 17:55 Vrbl 6 10.00 Fair CLR 93.2 77 59% 107 30.04 0.0
02 17:35 S 6 10.00 Fair CLR 93.2 77 59% 107 30.04 0.0
02 17:15 S 5 9.00 Fair CLR 91.4 77 63% 105 30.04 0.0
02 16:55 S 5 10.00 Fair CLR 93.2 75.2 56% 105 30.05 0.0
02 16:35 Vrbl 5 10.00 Fair CLR 95 75.2 53% 107 30.05 0.0
02 16:15 Vrbl 5 10.00 Fair CLR 93.2 75.2 56% 105 30.05 0.0
02 15:55 S 6 10.00 Fair CLR 95 75.2 53% 107 30.06 0.0
02 15:35 Vrbl 5 10.00 Fair CLR 96.8 73.4 47% 107 30.06 0.0
02 15:15 Vrbl 6 10.00 Fair CLR 95 73.4 50% 105 30.07 0.0
02 14:55 Calm 10.00 Fair CLR 95 73.4 50% 105 30.07 0.0
02 14:35 S 6 10.00 Fair CLR 96.8 73.4 47% 107 30.08 0.0
02 14:15 Vrbl 6 10.00 Fair CLR 95 73.4 50% 105 30.09 0.0
02 13:55 Vrbl 3 10.00 Fair CLR 95 69.8 44% 101 30.09 0.0
02 13:35 SW 5 10.00 Fair CLR 95 73.4 50% 105 30.1 0.0
02 13:15 Vrbl 6 10.00 Fair CLR 93.2 73.4 53% 103 30.11 0.0
02 12:55 Calm 10.00 Fair CLR 93.2 71.6 50% 101 30.11 0.0
02 12:35 Calm 10.00 Fair CLR 91.4 73.4 56% 100 30.12 0.0
02 12:15 Calm 10.00 Fair CLR 91.4 73.4 56% 100 30.12 0.0
02 11:55 N 5 10.00 Fair CLR 89.6 75.2 63% 100 30.13 0.0
02 11:35 N 5 3.00 Light Drizzle Haze CLR 89.6 75.2 63% 100 30.13 0.0
02 11:15 NW 6 8.00 Fair CLR 87.8 75.2 66% 98 30.13 0.0
02 10:55 Vrbl 3 10.00 Fair CLR 86 77 75% 97 30.13 0.0
02 10:35 W 6 10.00 Fair CLR 84.2 75.2 74% 92 30.13 0.0
02 10:15 NW 7 10.00 Fair CLR 84.2 75.2 74% 92 30.13 0.0
02 09:55 W 3 10.00 Fair CLR 82.4 75.2 79% 89 30.13 0.0
02 09:35 Calm 10.00 Fair CLR 80.6 77 89% 87 30.13 0.0
Date Time (edt) Wind (mph) Vis. (mi.) Weather Sky Cond. Air Dwpt Max. Min. Relative Humidity Wind Chill (°F) Heat Index (°F) altimeter (in) sea level (mb) 1 hr 3 hr 6 hr
6 hour
Temperature (ºF) Pressure Precipitation (in)